Time;durP1;ratioP1;P1;durP2;ratioP2;P2;SDS_P1;SDS_P2;PMS_P1;PMS_P2;Temp;Humidity;BMP_temperature;BMP_pressure;BME280_temperature;BME280_humidity;BME280_pressure;Samples;Min_cycle;Max_cycle;Signal;HPM_P1;HPM_P2
2022/11/26 12:25:36;;;;;;;12.50;8.20;;;;;;;6.08;80.28;101157.30;105161;1312;548191;-62
2022/11/26 12:28:15;;;;;;;10.80;7.10;;;;;;;8.73;67.92;101147.78;105336;1312;22225;-62
2022/11/26 12:30:55;;;;;;;10.00;7.00;;;;;;;9.17;64.64;101147.05;105345;1312;21974;-62
2022/11/26 12:33:42;;;;;;;9.80;6.60;;;;;;;9.39;63.72;101150.31;105246;1312;22962;-65
2022/11/26 12:36:30;;;;;;;10.30;6.60;;;;;;;9.50;63.48;101152.47;105312;1312;23089;-63
2022/11/26 12:38:59;;;;;;;10.20;6.60;;;;;;;9.57;62.82;101153.20;105308;1312;216276;-63
2022/11/26 12:41:32;;;;;;;9.50;6.40;;;;;;;9.59;62.36;101155.14;105632;1304;21979;-61
2022/11/26 12:44:15;;;;;;;10.50;7.00;;;;;;;9.56;61.41;101158.63;105618;1309;21967;-60
2022/11/26 17:55:42;;;;;;;26.30;17.80;;;;;;;4.87;84.90;101360.79;106434;1293;548683;-67
2022/11/26 17:58:10;;;;;;;24.90;18.90;;;;;;;7.50;72.86;101351.90;106415;1299;22134;-67
2022/11/26 18:00:36;;;;;;;25.00;19.10;;;;;;;7.94;69.23;101349.95;106362;1298;21975;-68
2022/11/26 18:03:02;;;;;;;24.30;19.40;;;;;;;8.11;67.94;101350.19;106290;1300;21966;-67
2022/11/26 18:05:28;;;;;;;25.20;18.80;;;;;;;8.26;67.12;101348.46;106252;1303;21960;-67
2022/11/26 18:07:54;;;;;;;31.20;22.10;;;;;;;8.39;66.38;101353.52;106155;1291;347122;-69
2022/11/26 18:10:23;;;;;;;30.30;21.10;;;;;;;8.46;65.68;101355.17;106708;1301;21971;-69
2022/11/26 18:12:51;;;;;;;24.10;16.50;;;;;;;8.51;65.20;101353.34;106703;1299;22337;-70
2022/11/26 18:15:22;;;;;;;27.20;16.80;;;;;;;8.55;64.85;101355.67;106731;1301;21973;-69
2022/11/26 18:17:50;;;;;;;30.20;19.70;;;;;;;8.52;64.35;101355.80;106760;1301;21974;-68
2022/11/26 18:20:20;;;;;;;34.50;24.00;;;;;;;8.49;63.83;101357.31;106765;1300;21956;-69
2022/11/26 18:22:49;;;;;;;27.30;20.40;;;;;;;8.49;64.03;101359.59;106769;1300;21964;-69
2022/11/26 18:25:15;;;;;;;44.30;29.60;;;;;;;8.40;64.25;101366.81;106733;1300;21964;-68
2022/11/26 18:27:41;;;;;;;22.70;16.10;;;;;;;8.38;64.25;101368.89;106694;1296;22000;-68
2022/11/26 18:30:08;;;;;;;20.00;14.40;;;;;;;8.38;63.98;101369.41;106706;1301;21962;-67
2022/11/26 18:32:36;;;;;;;28.00;18.50;;;;;;;8.40;63.77;101366.98;106675;1300;21958;-68
2022/11/26 18:35:02;;;;;;;17.20;11.40;;;;;;;8.43;62.92;101365.45;106861;1300;21950;-67
2022/11/26 18:37:28;;;;;;;37.90;22.60;;;;;;;8.47;63.28;101366.21;106709;1290;21960;-67
2022/11/26 18:39:54;;;;;;;38.20;23.10;;;;;;;8.51;63.40;101364.36;106660;1300;22433;-68
2022/11/26 18:42:20;;;;;;;27.30;16.60;;;;;;;8.48;63.25;101367.81;106715;1295;21965;-67
2022/11/26 18:44:45;;;;;;;42.70;23.10;;;;;;;8.46;62.80;101378.27;106745;1300;24376;-67
2022/11/26 18:47:12;;;;;;;35.40;19.20;;;;;;;8.41;62.53;101381.52;106716;1300;21962;-67
2022/11/26 18:49:38;;;;;;;31.30;17.00;;;;;;;8.42;62.28;101383.29;106719;1300;24027;-67
2022/11/26 18:52:04;;;;;;;31.20;17.60;;;;;;;8.44;62.34;101383.31;106424;1301;23736;-67
2022/11/26 18:54:30;;;;;;;28.30;17.00;;;;;;;8.47;62.28;101387.55;106844;1300;23631;-67
2022/11/26 18:56:56;;;;;;;27.60;14.60;;;;;;;8.38;61.82;101385.70;106771;1300;21972;-67
2022/11/26 18:59:22;;;;;;;14.90;9.50;;;;;;;8.36;61.76;101382.52;106713;1299;21968;-69
2022/11/26 19:01:49;;;;;;;31.00;18.30;;;;;;;8.34;61.69;101382.84;106716;1300;21984;-68
2022/11/26 19:04:15;;;;;;;26.50;15.10;;;;;;;8.35;61.92;101384.77;106618;1300;21981;-68
2022/11/26 19:06:40;;;;;;;20.10;11.20;;;;;;;8.29;61.46;101386.61;106373;1296;21948;-69
2022/11/26 19:09:17;;;;;;;37.40;19.00;;;;;;;8.28;61.60;101389.91;106366;1300;21941;-67
2022/11/26 19:11:43;;;;;;;29.00;16.00;;;;;;;8.28;61.52;101395.52;106266;1301;23721;-67
2022/11/26 19:14:13;;;;;;;45.50;24.20;;;;;;;8.26;61.33;101393.92;106380;1302;21965;-66
2022/11/26 19:16:40;;;;;;;54.00;27.90;;;;;;;8.27;61.17;101391.66;106415;1300;21961;-67
2022/11/26 19:19:06;;;;;;;32.60;17.50;;;;;;;8.29;61.09;101393.43;106476;1300;21968;-68
2022/11/26 19:21:33;;;;;;;72.30;35.80;;;;;;;8.28;61.43;101397.27;106360;1300;21977;-68
2022/11/26 19:24:01;;;;;;;55.90;31.60;;;;;;;8.14;62.12;101403.70;106342;1300;21989;-67
2022/11/26 19:26:29;;;;;;;60.40;33.70;;;;;;;7.90;62.20;101406.68;106254;1300;24341;-68
2022/11/26 19:28:55;;;;;;;59.10;32.80;;;;;;;7.69;62.58;101405.67;106230;1303;21958;-68
2022/11/26 19:31:22;;;;;;;38.40;24.40;;;;;;;7.73;62.92;101407.48;106419;1300;21972;-67
2022/11/26 19:33:52;;;;;;;19.80;13.20;;;;;;;7.68;62.86;101401.98;106341;1300;22017;-67
2022/11/26 19:36:18;;;;;;;16.30;11.80;;;;;;;7.55;63.18;101408.59;106399;1300;22028;-67
2022/11/26 19:38:45;;;;;;;13.00;9.70;;;;;;;7.44;63.26;101417.66;106403;1300;21959;-70
2022/11/26 19:41:12;;;;;;;11.50;8.00;;;;;;;7.37;63.34;101419.29;106395;1295;22235;-70
2022/11/26 19:43:39;;;;;;;12.20;8.80;;;;;;;7.34;63.67;101421.84;106396;1300;22091;-68
2022/11/26 19:46:06;;;;;;;12.70;9.10;;;;;;;7.30;63.42;101425.62;106334;1300;23798;-69
2022/11/26 19:48:32;;;;;;;21.90;13.60;;;;;;;7.26;63.63;101429.91;106486;1300;21961;-67
2022/11/26 19:50:58;;;;;;;26.50;14.20;;;;;;;7.28;64.07;101428.90;106479;1297;21975;-67
2022/11/26 19:53:24;;;;;;;23.10;14.60;;;;;;;7.23;63.58;101432.66;106448;1300;23518;-67
2022/11/26 19:56:00;;;;;;;17.00;11.20;;;;;;;7.23;63.81;101431.09;106407;1300;22596;-67
2022/11/26 19:58:27;;;;;;;16.40;10.70;;;;;;;7.29;63.93;101432.06;106543;1300;23618;-69
2022/11/26 20:00:53;;;;;;;16.40;10.40;;;;;;;7.28;63.70;101429.77;106411;1299;22035;-67
2022/11/26 20:03:19;;;;;;;16.50;11.00;;;;;;;7.26;63.47;101427.48;106650;1301;23640;-66
2022/11/26 20:05:45;;;;;;;14.20;9.40;;;;;;;7.35;63.20;101432.35;106644;1298;23068;-68
2022/11/26 20:08:11;;;;;;;13.40;9.20;;;;;;;7.37;63.02;101438.66;106420;1300;21958;-68
2022/11/26 20:10:37;;;;;;;13.00;9.00;;;;;;;7.23;63.27;101442.60;106432;1300;21958;-69
2022/11/26 20:13:04;;;;;;;14.20;9.00;;;;;;;7.18;63.53;101440.94;106459;1300;23086;-68
2022/11/26 20:15:31;;;;;;;13.70;9.70;;;;;;;7.19;63.76;101441.81;106491;1300;21974;-69
2022/11/26 20:17:57;;;;;;;12.90;8.80;;;;;;;7.13;63.30;101441.38;106455;1295;21973;-68
2022/11/26 20:20:22;;;;;;;15.90;8.90;;;;;;;7.13;63.50;101438.58;106391;1300;21963;-69
2022/11/26 20:22:50;;;;;;;15.60;9.60;;;;;;;7.13;63.46;101438.21;106489;1299;21954;-67
2022/11/26 20:25:16;;;;;;;14.40;9.20;;;;;;;7.19;63.08;101441.13;106372;1300;22442;-68
2022/11/26 20:27:42;;;;;;;19.00;9.20;;;;;;;7.13;63.29;101438.59;106493;1300;21987;-68
2022/11/26 20:30:09;;;;;;;11.40;8.10;;;;;;;7.10;63.15;101433.64;106431;1299;21976;-67
2022/11/26 20:32:36;;;;;;;13.40;9.20;;;;;;;7.12;63.37;101433.48;106538;1300;21952;-68
2022/11/26 20:35:03;;;;;;;12.30;8.60;;;;;;;7.04;63.59;101433.53;106547;1300;21955;-69
2022/11/26 20:37:29;;;;;;;12.10;8.30;;;;;;;6.98;63.68;101432.03;106544;1300;23584;-67
2022/11/26 20:39:54;;;;;;;12.10;8.00;;;;;;;6.97;64.05;101430.43;106465;1301;24465;-66
2022/11/26 20:42:20;;;;;;;12.20;7.80;;;;;;;6.97;63.92;101429.02;106486;1300;23696;-67
2022/11/26 20:44:46;;;;;;;16.00;8.60;;;;;;;6.96;64.03;101425.52;106414;1300;21967;-68
2022/11/26 20:47:13;;;;;;;11.30;8.00;;;;;;;6.93;64.02;101421.45;106398;1300;21962;-69
2022/11/26 20:49:40;;;;;;;13.00;8.40;;;;;;;6.90;63.76;101422.77;106477;1300;21962;-67
2022/11/26 20:52:06;;;;;;;13.80;7.90;;;;;;;7.00;63.52;101421.77;106381;1300;21995;-66
2022/11/26 20:54:32;;;;;;;12.30;7.90;;;;;;;7.01;63.21;101418.27;106451;1300;21954;-68
2022/11/26 20:56:58;;;;;;;11.60;7.60;;;;;;;7.00;63.45;101421.77;106367;1300;24359;-70
2022/11/26 20:59:24;;;;;;;12.00;7.60;;;;;;;6.95;63.28;101427.96;106467;1298;22001;-70
2022/11/26 21:01:50;;;;;;;12.40;8.60;;;;;;;6.92;63.03;101434.88;106431;1300;21998;-69
2022/11/26 21:04:16;;;;;;;12.20;7.90;;;;;;;6.91;63.31;101434.13;106258;1295;21954;-67
2022/11/26 21:06:42;;;;;;;12.40;7.30;;;;;;;6.95;63.25;101438.40;106304;1300;24529;-69
2022/11/26 21:09:09;;;;;;;12.00;8.70;;;;;;;6.81;63.55;101443.89;106466;1300;21997;-68
2022/11/26 21:11:35;;;;;;;12.90;9.20;;;;;;;6.77;63.85;101445.73;106561;1300;21967;-69
2022/11/26 21:14:02;;;;;;;12.60;8.10;;;;;;;6.80;63.81;101448.76;106377;1300;21968;-69
2022/11/26 21:16:29;;;;;;;16.70;10.10;;;;;;;6.79;63.66;101451.01;106423;1300;23084;-67
2022/11/26 21:18:55;;;;;;;14.20;9.20;;;;;;;6.79;63.86;101455.19;106434;1300;21950;-69
2022/11/26 21:21:21;;;;;;;12.00;8.60;;;;;;;6.73;63.82;101456.63;106450;1295;21975;-68
2022/11/26 21:23:48;;;;;;;13.30;9.10;;;;;;;6.64;64.10;101461.34;106311;1300;21970;-67
2022/11/26 21:26:15;;;;;;;13.30;9.40;;;;;;;6.62;64.49;101464.60;106395;1299;21956;-68
2022/11/26 21:28:41;;;;;;;14.20;9.50;;;;;;;6.66;64.41;101466.09;106500;1300;21971;-68
2022/11/26 21:31:15;;;;;;;12.50;8.90;;;;;;;6.65;64.22;101465.90;106529;1300;21966;-69
2022/11/26 21:33:45;;;;;;;14.70;9.90;;;;;;;6.65;64.40;101470.41;106635;1300;21974;-68
2022/11/26 21:36:13;;;;;;;14.60;10.10;;;;;;;6.58;64.38;101470.45;106449;1300;23804;-68
2022/11/26 21:38:39;;;;;;;16.10;10.00;;;;;;;6.81;63.54;101470.92;106568;1300;21941;-69
2022/11/26 21:41:06;;;;;;;15.50;10.20;;;;;;;6.98;62.96;101467.95;106487;1299;21972;-68
2022/11/26 21:43:32;;;;;;;15.00;9.90;;;;;;;7.12;62.69;101466.13;106440;1300;23636;-67
2022/11/26 21:46:02;;;;;;;16.10;10.70;;;;;;;7.20;62.70;101467.86;106361;1300;21969;-68
2022/11/26 21:48:29;;;;;;;15.80;10.90;;;;;;;7.22;62.86;101466.16;106485;1300;21962;-68
2022/11/26 21:50:54;;;;;;;16.80;11.10;;;;;;;7.40;62.39;101467.71;106388;1300;21956;-68
2022/11/26 21:53:21;;;;;;;16.00;10.70;;;;;;;7.46;62.31;101469.02;106443;1300;22789;-69
2022/11/26 21:55:46;;;;;;;15.20;10.70;;;;;;;7.43;62.10;101465.50;106397;1300;21966;-68
2022/11/26 21:58:12;;;;;;;17.80;11.10;;;;;;;7.44;62.09;101466.55;106384;1299;21966;-70
2022/11/26 22:00:38;;;;;;;15.90;10.20;;;;;;;7.48;61.88;101467.67;106449;1296;21971;-70
2022/11/26 22:03:04;;;;;;;14.00;9.70;;;;;;;7.53;61.98;101470.91;106382;1300;21961;-70
2022/11/26 22:05:29;;;;;;;16.80;10.10;;;;;;;7.55;62.01;101472.15;106372;1299;21971;-68
2022/11/26 22:07:55;;;;;;;12.80;9.10;;;;;;;7.58;61.92;101467.31;106413;1299;21957;-67
2022/11/26 22:10:21;;;;;;;17.50;11.20;;;;;;;7.59;61.84;101466.30;106420;1300;21972;-68
2022/11/26 22:12:48;;;;;;;14.20;9.50;;;;;;;7.61;61.99;101459.36;106417;1299;21963;-68
2022/11/26 22:15:13;;;;;;;15.30;9.20;;;;;;;7.64;61.64;101455.91;106380;1300;21971;-69
2022/11/26 22:17:39;;;;;;;16.00;8.90;;;;;;;7.59;61.59;101458.27;106382;1299;22002;-69
2022/11/26 22:20:07;;;;;;;11.60;8.50;;;;;;;7.45;61.77;101460.65;106417;1300;21965;-70
2022/11/26 22:22:33;;;;;;;15.10;10.00;;;;;;;7.40;62.00;101460.89;106439;1299;23648;-70
2022/11/26 22:24:58;;;;;;;15.40;9.10;;;;;;;7.36;62.09;101463.96;106410;1300;21955;-69
2022/11/26 22:27:24;;;;;;;12.70;7.90;;;;;;;7.36;62.22;101462.39;106425;1300;23708;-68
2022/11/26 22:29:50;;;;;;;12.90;8.40;;;;;;;7.41;62.45;101461.09;106379;1300;21963;-69
2022/11/26 22:32:16;;;;;;;12.40;8.60;;;;;;;7.43;61.99;101462.36;106422;1300;21965;-69
2022/11/26 22:34:42;;;;;;;14.50;8.40;;;;;;;7.41;61.91;101460.05;106406;1300;22006;-68
2022/11/26 22:37:08;;;;;;;14.80;8.80;;;;;;;7.40;62.21;101464.23;106386;1300;21960;-70
2022/11/26 22:39:34;;;;;;;13.80;8.40;;;;;;;7.42;62.31;101459.55;106464;1300;21964;-68
2022/11/26 22:42:00;;;;;;;12.50;8.70;;;;;;;7.46;62.06;101460.99;106483;1299;22016;-69
2022/11/26 22:44:26;;;;;;;12.50;8.50;;;;;;;7.50;61.99;101459.33;106502;1300;21966;-66
2022/11/26 22:46:52;;;;;;;17.10;9.80;;;;;;;7.52;61.87;101459.70;106440;1300;21961;-69
2022/11/26 22:49:17;;;;;;;15.90;9.10;;;;;;;7.52;62.09;101459.17;106399;1299;21955;-69
2022/11/26 22:51:46;;;;;;;14.00;7.80;;;;;;;7.51;62.05;101456.55;106447;1299;21974;-67
2022/11/26 22:54:13;;;;;;;14.10;8.40;;;;;;;7.52;62.09;101456.04;106311;1301;22747;-67
2022/11/26 22:56:39;;;;;;;11.70;7.90;;;;;;;7.58;62.00;101455.63;106333;1300;21955;-67
2022/11/26 22:59:07;;;;;;;14.60;9.20;;;;;;;7.62;61.79;101458.48;106394;1300;21964;-69
2022/11/26 23:01:33;;;;;;;14.90;8.60;;;;;;;7.63;61.86;101461.12;106399;1299;21969;-67
